23 mai 2022

Temps Code Temps Temp. Vue Des nuages Vent METAR/SPECI
11:00
V
19 °C 10 km+ - 350°   350° 4 kt METAR LFQQ 230900Z AUTO 35004KT 320V030 9999 ///TCU 19/14 Q1001 TEMPO 3000 RA BKN060CB
10:30
V
19 °C 10 km+ - 030°   030° 4 kt METAR LFQQ 230830Z AUTO 03004KT 9999 //////TCU 19/14 Q1001 TEMPO 3000 RA BKN060CB BECMG 32010KT
10:00
V
19 °C 10 km+ - 040°   040° 4 kt METAR LFQQ 230800Z AUTO 04004KT 350V090 9999 //////TCU 19/14 Q1001 TEMPO 3000 SHRA BKN060CB
09:30
V
18 °C 9 km - 060°   060° 6 kt METAR LFQQ 230730Z AUTO 06006KT 030V090 9000 //////TCU 18/13 Q1001 TEMPO 3000 SHRA BKN060CB
09:00
M
18 °C 6 km - 330°   330° 3 kt METAR LFQQ 230700Z AUTO 33003KT 300V360 6000 NSC 18/14 Q1002 TEMPO 3000 SHRA BKN060CB
08:30
M
17 °C 6 km - 330°   330° 3 kt METAR LFQQ 230630Z AUTO 33003KT 290V020 6000 NSC 17/14 Q1002 TEMPO 3000 SHRA BKN060CB
08:00
M
16 °C 5 km - Var   000° 0 kt METAR LFQQ 230600Z AUTO 00000KT 5000 BR //////TCU 16/14 Q1003 TEMPO SHRA BKN060CB
07:30
M
16 °C 6 km 10.000 ft Var   Var 2 kt METAR LFQQ 230530Z AUTO VRB02KT 6000 FEW042/// BKN100/// OVC110/// //////TCU 16/13 Q1003 TEMPO 3000 SHRA BKN050CB
07:00
M
16 °C 7 km - Var   Var 2 kt METAR LFQQ 230500Z AUTO VRB02KT 7000 NSC 16/13 Q1003 NOSIG
06:30
M
16 °C 7 km - 030°   030° 4 kt METAR LFQQ 230430Z AUTO 03004KT 360V060 7000 NSC 16/13 Q1003 NOSIG
06:00
M
16 °C 7 km - 010°   010° 7 kt METAR LFQQ 230400Z AUTO 01007KT 7000 NSC 16/13 Q1003 NOSIG
05:30
V
16 °C 8 km - 050°   050° 3 kt METAR LFQQ 230330Z AUTO 05003KT 020V080 8000 NSC 16/13 Q1004 NOSIG
05:00
V
16 °C 8 km - 040°   040° 5 kt METAR LFQQ 230300Z AUTO 04005KT 8000 NSC 16/13 Q1004 NOSIG
04:30
V
16 °C 8 km - 010°   010° 5 kt METAR LFQQ 230230Z AUTO 01005KT 8000 ///TCU 16/13 Q1005 BECMG NSC
04:00
V
16 °C 9 km - 040°   040° 3 kt METAR LFQQ 230200Z AUTO 04003KT 9000 //////TCU 16/13 Q1005 BECMG NSC
03:30
V
16 °C 9 km - 040°   040° 2 kt METAR LFQQ 230130Z AUTO 04002KT 9000 NSC 16/13 Q1006 NOSIG
03:00
M
16 °C 7 km - Var   Var 1 kt METAR LFQQ 230100Z AUTO VRB01KT 7000 NSC 16/13 Q1006 NOSIG
02:30
M
15 °C 7 km - Var   000° 0 kt METAR LFQQ 230030Z AUTO 00000KT 7000 NSC 15/13 Q1007 NOSIG
02:00
M
15 °C 7 km - 290°   290° 3 kt METAR LFQQ 230000Z AUTO 29003KT 7000 NSC 15/13 Q1007 NOSIG
01:30
V
16 °C 8 km - Var   Var 2 kt METAR LFQQ 222330Z AUTO VRB02KT 8000 NSC 16/13 Q1007 NOSIG
01:00
V
16 °C 8 km - 310°   310° 3 kt METAR LFQQ 222300Z AUTO 31003KT 8000 NSC 16/13 Q1008 NOSIG
00:30
V
17 °C 10 km+ - 330°   330° 3 kt METAR LFQQ 222230Z AUTO 33003KT CAVOK 17/13 Q1008 NOSIG
00:00
V
17 °C 10 km+ - 310°   310° 4 kt METAR LFQQ 222200Z AUTO 31004KT CAVOK 17/13 Q1008 NOSIG

22 mai 2022

Temps Code Temps Temp. Vue Des nuages Vent METAR/SPECI
23:30
V
18 °C 10 km+ - Var   Var 2 kt METAR LFQQ 222130Z AUTO VRB02KT CAVOK 18/13 Q1008 NOSIG
23:00
V
18 °C 10 km+ - Var   Var 2 kt METAR LFQQ 222100Z AUTO VRB02KT CAVOK 18/13 Q1009 NOSIG
22:30
V
19 °C 10 km+ - 040°   040° 3 kt METAR LFQQ 222030Z AUTO 04003KT CAVOK 19/14 Q1009 NOSIG
22:00
V
19 °C 10 km+ - 320°   320° 5 kt METAR LFQQ 222000Z AUTO 32005KT 9999 //////TCU 19/13 Q1009 BECMG NSC
21:30
V
20 °C 10 km+ - 280°   280° 5 kt METAR LFQQ 221930Z AUTO 28005KT 9999 //////TCU 20/11 Q1010 BECMG NSC
21:00
V
21 °C 10 km+ - 250°   250° 4 kt METAR LFQQ 221900Z AUTO 25004KT 9999 //////TCU 21/11 Q1010 TEMPO 4000 RA BECMG NSC
20:30
V
21 °C 10 km+ - 210°   210° 6 kt METAR LFQQ 221830Z AUTO 21006KT CAVOK 21/11 Q1010 TEMPO 4000 RA
20:00
V
22 °C 10 km+ - 200°   200° 6 kt METAR LFQQ 221800Z AUTO 20006KT CAVOK 22/11 Q1010 TEMPO 4000 RA
19:30
V
22 °C 10 km+ - 190°   190° 6 kt METAR LFQQ 221730Z AUTO 19006KT 150V220 CAVOK 22/11 Q1010 BECMG SCT080CB
19:00
V
23 °C 10 km+ - 160°   160° 4 kt METAR LFQQ 221700Z AUTO 16004KT CAVOK 23/12 Q1010 BECMG SCT080CB
18:30
V
23 °C 10 km+ - 150°   150° 4 kt METAR LFQQ 221630Z AUTO 15004KT 070V200 CAVOK 23/11 Q1010 BECMG SCT080CB
18:00
V
24 °C 10 km+ - 120°   120° 5 kt METAR LFQQ 221600Z AUTO 12005KT 070V170 9999 FEW011 24/12 Q1011 BECMG SCT080CB
17:30
V
24 °C 10 km+ - 100°   100° 5 kt METAR LFQQ 221530Z AUTO 10005KT 030V180 CAVOK 24/12 Q1011 BECMG SCT080CB
17:00
V
24 °C 10 km+ - 160°   160° 6 kt METAR LFQQ 221500Z AUTO 16006KT 120V190 CAVOK 24/12 Q1011 BECMG SCT080CB
16:30
V
23 °C 10 km+ - 160°   160° 4 kt METAR LFQQ 221430Z AUTO 16004KT 100V260 CAVOK 23/12 Q1012 BECMG SCT080CB
16:00
V
23 °C 10 km+ - 150°   150° 4 kt METAR LFQQ 221400Z AUTO 15004KT 070V190 CAVOK 23/11 Q1012 BECMG SCT080CB
15:30
V
23 °C 10 km+ - 140°   140° 4 kt METAR LFQQ 221330Z AUTO 14004KT 060V220 CAVOK 23/12 Q1013 BECMG SCT080CB
15:00
V
23 °C 10 km+ - 130°   130° 5 kt METAR LFQQ 221300Z AUTO 13005KT 060V220 CAVOK 23/12 Q1013 BECMG SCT080CB
14:30
V
22 °C 10 km+ - 140°   140° 5 kt METAR LFQQ 221230Z AUTO 14005KT 070V200 9999 FEW043 22/11 Q1013 BECMG SCT080CB
14:00
V
22 °C 10 km+ - Var   Var 3 kt METAR LFQQ 221200Z AUTO VRB03KT CAVOK 22/12 Q1014 BECMG SCT080CB
13:30
V
22 °C 10 km+ - 150°   150° 5 kt METAR LFQQ 221130Z AUTO 15005KT 120V210 9999 FEW038 22/11 Q1014 NOSIG
13:00
V
21 °C 10 km+ - 190°   190° 4 kt METAR LFQQ 221100Z AUTO 19004KT 130V250 CAVOK 21/11 Q1014 NOSIG
12:30
V
21 °C 10 km+ - Var   Var 3 kt METAR LFQQ 221030Z AUTO VRB03KT CAVOK 21/12 Q1014 NOSIG
12:00
V
21 °C 10 km+ - Var   Var 2 kt METAR LFQQ 221000Z AUTO VRB02KT CAVOK 21/12 Q1015 NOSIG
11:30
V
20 °C 10 km+ - Var   Var 3 kt METAR LFQQ 220930Z AUTO VRB03KT CAVOK 20/11 Q1015 NOSIG
11:00
V
19 °C 10 km+ - 200°   200° 4 kt METAR LFQQ 220900Z AUTO 20004KT 150V250 CAVOK 19/12 Q1016 NOSIG
10:30
V
18 °C 10 km+ - 190°   190° 3 kt METAR LFQQ 220830Z AUTO 19003KT 110V280 CAVOK 18/11 Q1016 NOSIG
10:00
V
17 °C 10 km+ - Var   Var 3 kt METAR LFQQ 220800Z AUTO VRB03KT CAVOK 17/11 Q1016 NOSIG
09:30
V
17 °C 10 km+ - Var   Var 3 kt METAR LFQQ 220730Z AUTO VRB03KT CAVOK 17/12 Q1017 NOSIG
09:00
V
15 °C 10 km+ - 150°   150° 3 kt METAR LFQQ 220700Z AUTO 15003KT 110V210 CAVOK 15/11 Q1017 NOSIG
08:30
V
14 °C 10 km+ - 130°   130° 3 kt METAR LFQQ 220630Z AUTO 13003KT 100V180 CAVOK 14/11 Q1017 NOSIG
08:00
V
13 °C 10 km+ - Var   Var 1 kt METAR LFQQ 220600Z AUTO VRB01KT CAVOK 13/10 Q1017 TEMPO 1300 BCFG
07:30
V
11 °C 10 km+ - Var   Var 1 kt METAR LFQQ 220530Z AUTO VRB01KT CAVOK 11/10 Q1017 NOSIG
07:00
V
11 °C 10 km+ - Var   000° 0 kt METAR LFQQ 220500Z AUTO 00000KT CAVOK 11/10 Q1017 NOSIG
06:30
L
10 °C 1,3 km - 190°   190° 1 kt METAR LFQQ 220430Z AUTO 19001KT 8000 1300 R26/1200U R08/P5000 NSC 10/09 Q1017 NOSIG
06:00
L
9 °C 600 m - 170°   170° 2 kt METAR LFQQ 220400Z AUTO 17002KT 9999 0600 R26/0750D R08/P5000 BCFG NSC 09/09 Q1017 TEMPO 1500 BR BKN003
05:30
V
9 °C 10 km+ - Var   000° 0 kt METAR LFQQ 220330Z AUTO 00000KT CAVOK 09/08 Q1017 TEMPO 1500 BR BKN003
05:00
V
10 °C 10 km+ - 020°   020° 2 kt METAR LFQQ 220300Z AUTO 02002KT CAVOK 10/08 Q1018 TEMPO 1500 BR BKN003
04:30
V
10 °C 10 km+ - Var   Var 2 kt METAR LFQQ 220230Z AUTO VRB02KT CAVOK 10/09 Q1018 TEMPO 1500 BR BKN003
04:00
V
10 °C 10 km+ - 050°   050° 3 kt METAR LFQQ 220200Z AUTO 05003KT CAVOK 10/09 Q1018 TEMPO 1500 BR BKN003
03:30
V
11 °C 10 km+ - 070°   070° 2 kt METAR LFQQ 220130Z AUTO 07002KT CAVOK 11/09 Q1018 TEMPO 1500 BR BKN003
03:00
V
11 °C 10 km+ - 030°   030° 3 kt METAR LFQQ 220100Z AUTO 03003KT CAVOK 11/09 Q1018 TEMPO 1500 BR BKN003
02:30
V
11 °C 10 km+ - Var   000° 0 kt METAR LFQQ 220030Z AUTO 00000KT CAVOK 11/09 Q1019 TEMPO 1500 BR BKN003
02:00
V
11 °C 10 km+ - Var   000° 0 kt METAR LFQQ 220000Z AUTO 00000KT CAVOK 11/09 Q1019 TEMPO 1500 BR BKN003
01:30
V
12 °C 10 km+ - Var   Var 1 kt METAR LFQQ 212330Z AUTO VRB01KT CAVOK 12/09 Q1019 TEMPO 1500 BR BKN003
01:00
V
12 °C 10 km+ - 030°   030° 1 kt METAR LFQQ 212300Z AUTO 03001KT CAVOK 12/09 Q1019 NOSIG
00:30
V
12 °C 10 km+ - Var   000° 0 kt METAR LFQQ 212230Z AUTO 00000KT CAVOK 12/10 Q1019 NOSIG
00:00
V
13 °C 10 km+ - Var   Var 1 kt METAR LFQQ 212200Z AUTO VRB01KT CAVOK 13/09 Q1020 NOSIG

21 mai 2022

Temps Code Temps Temp. Vue Des nuages Vent METAR/SPECI
23:30
V
14 °C 10 km+ - 250°   250° 3 kt METAR LFQQ 212130Z AUTO 25003KT CAVOK 14/10 Q1020 NOSIG
23:00
V
15 °C 10 km+ - 270°   270° 4 kt METAR LFQQ 212100Z AUTO 27004KT CAVOK 15/10 Q1020 NOSIG
22:30
V
15 °C 10 km+ - 280°   280° 3 kt METAR LFQQ 212030Z AUTO 28003KT CAVOK 15/10 Q1020 NOSIG
22:00
V
16 °C 10 km+ - 290°   290° 4 kt METAR LFQQ 212000Z AUTO 29004KT 9999 FEW044 16/09 Q1020 NOSIG
21:30
V
16 °C 10 km+ 15.000 ft 290°   290° 7 kt METAR LFQQ 211930Z AUTO 29007KT 9999 FEW045 BKN150 16/10 Q1020 NOSIG
21:00
V
17 °C 10 km+ 14.000 ft 280°   280° 7 kt METAR LFQQ 211900Z AUTO 28007KT 9999 FEW045 BKN140 17/10 Q1020 NOSIG
20:30
V
18 °C 10 km+ - 270°   270° 5 kt METAR LFQQ 211830Z AUTO 27005KT 9999 FEW049 18/09 Q1020 NOSIG
20:00
V
20 °C 10 km+ - 280°   280° 7 kt METAR LFQQ 211800Z AUTO 28007KT 240V300 9999 FEW046 20/09 Q1020 NOSIG
19:30
V
20 °C 10 km+ - 260°   260° 7 kt METAR LFQQ 211730Z AUTO 26007KT 220V290 9999 SCT047 20/09 Q1020 NOSIG
19:00
V
20 °C 10 km+ - 250°   250° 8 kt METAR LFQQ 211700Z AUTO 25008KT 9999 FEW048 20/09 Q1020 NOSIG
18:30
V
20 °C 10 km+ - 230°   230° 7 kt METAR LFQQ 211630Z AUTO 23007KT 200V260 9999 SCT047 20/08 Q1020 NOSIG
18:00
V
20 °C 10 km+ 4.700 ft 230°   230° 8 kt METAR LFQQ 211600Z AUTO 23008KT 200V300 9999 BKN047 20/09 Q1021 NOSIG
17:30
V
19 °C 10 km+ - 260°   260° 4 kt METAR LFQQ 211530Z AUTO 26004KT 220V310 9999 SCT046 19/09 Q1021 NOSIG
17:00
V
20 °C 10 km+ - 230°   230° 7 kt METAR LFQQ 211500Z AUTO 23007KT 170V290 9999 SCT048 20/09 Q1021 NOSIG
16:30
V
20 °C 10 km+ - 260°   260° 6 kt METAR LFQQ 211430Z AUTO 26006KT 230V300 9999 SCT047 SCT054 20/09 Q1021 NOSIG
16:00
V
20 °C 10 km+ - 230°   230° 7 kt METAR LFQQ 211400Z AUTO 23007KT 180V260 9999 FEW047 20/09 Q1022 NOSIG
15:30
V
19 °C 10 km+ 5.200 ft 270°   270° 9 kt METAR LFQQ 211330Z AUTO 27009KT 9999 FEW045 BKN052 19/09 Q1022 NOSIG
15:00
V
19 °C 10 km+ 4.200 ft 260°   260° 9 20 kt METAR LFQQ 211300Z AUTO 26009G20KT 210V290 9999 BKN042 BKN048 19/09 Q1022 NOSIG
14:30
V
19 °C 10 km+ 4.700 ft 240°   240° 9 kt METAR LFQQ 211230Z AUTO 24009KT 170V300 9999 FEW039 BKN047 19/10 Q1022 NOSIG
14:00
V
19 °C 10 km+ 4.700 ft 260°   260° 10 kt METAR LFQQ 211200Z AUTO 26010KT 9999 SCT039 BKN047 19/10 Q1022 NOSIG
13:30
V
18 °C 10 km+ 4.900 ft 280°   280° 9 kt METAR LFQQ 211130Z AUTO 28009KT 9999 SCT035 SCT042 BKN049 18/09 Q1022 NOSIG
13:00
V
18 °C 10 km+ - 240°   240° 10 kt METAR LFQQ 211100Z AUTO 24010KT 210V270 9999 FEW035 SCT050 18/10 Q1023 NOSIG
12:30
V
18 °C 10 km+ 3.200 ft 250°   250° 11 kt METAR LFQQ 211030Z AUTO 25011KT 210V300 9999 BKN032 BKN038 BKN045 18/10 Q1023 NOSIG
12:00
V
18 °C 10 km+ 3.100 ft 280°   280° 9 kt METAR LFQQ 211000Z AUTO 28009KT 9999 BKN031 BKN039 BKN046 18/10 Q1023 NOSIG
11:30
M
17 °C 10 km+ 2.900 ft 260°   260° 8 kt METAR LFQQ 210930Z AUTO 26008KT 220V300 9999 BKN029 BKN034 BKN042 17/10 Q1023 NOSIG
11:00
V
17 °C 10 km+ 3.100 ft 270°   270° 10 kt METAR LFQQ 210900Z AUTO 27010KT 240V310 9999 SCT024 BKN031 17/10 Q1023 NOSIG
Données plus anciennes

Télécharge notre application

Un accès facile à toute la météo aéronautique sur ton téléphone portable et ta tablette.
Avec de nombreuses fonctionnalités non disponibles sur le site Web, comme la prise en charge hors ligne et une liste personnelle d'aéroports.

Nous et des tiers suivons ton comportement sur Internet sur notre site Web à l'aide de cookies. Si tu continues, nous supposons que tu acceptes notre politique en matière de cookies. Apprendre plus